sensor_id;sensor_type;location;lat;lon;timestamp;P1;durP1;ratioP1;P2;durP2;ratioP2
3591;SDS011;1810;48.720;9.094;2023-09-19T00:01:12;346.73;;;330.83;;
3591;SDS011;1810;48.720;9.094;2023-09-19T00:03:41;343.48;;;327.70;;
3591;SDS011;1810;48.720;9.094;2023-09-19T00:06:10;376.98;;;359.95;;
3591;SDS011;1810;48.720;9.094;2023-09-19T00:08:39;334.70;;;319.77;;
3591;SDS011;1810;48.720;9.094;2023-09-19T00:11:10;296.38;;;283.23;;
3591;SDS011;1810;48.720;9.094;2023-09-19T00:13:38;311.17;;;297.52;;
3591;SDS011;1810;48.720;9.094;2023-09-19T00:16:08;270.30;;;257.88;;
3591;SDS011;1810;48.720;9.094;2023-09-19T00:18:39;303.33;;;289.85;;
3591;SDS011;1810;48.720;9.094;2023-09-19T00:21:08;342.52;;;327.17;;
3591;SDS011;1810;48.720;9.094;2023-09-19T00:23:37;345.77;;;330.52;;
3591;SDS011;1810;48.720;9.094;2023-09-19T00:26:07;358.63;;;342.48;;
3591;SDS011;1810;48.720;9.094;2023-09-19T00:28:35;353.85;;;337.95;;
3591;SDS011;1810;48.720;9.094;2023-09-19T00:31:04;325.80;;;311.60;;
3591;SDS011;1810;48.720;9.094;2023-09-19T00:34:00;365.85;;;349.52;;
3591;SDS011;1810;48.720;9.094;2023-09-19T00:36:30;202.98;;;193.93;;
3591;SDS011;1810;48.720;9.094;2023-09-19T00:38:59;187.55;;;179.13;;
3591;SDS011;1810;48.720;9.094;2023-09-19T00:41:29;177.23;;;169.20;;
3591;SDS011;1810;48.720;9.094;2023-09-19T00:43:57;140.88;;;134.35;;
3591;SDS011;1810;48.720;9.094;2023-09-19T00:46:26;121.03;;;115.28;;
3591;SDS011;1810;48.720;9.094;2023-09-19T00:48:54;108.45;;;103.18;;
3591;SDS011;1810;48.720;9.094;2023-09-19T00:51:24;211.73;;;202.18;;
3591;SDS011;1810;48.720;9.094;2023-09-19T00:53:54;200.32;;;191.32;;
3591;SDS011;1810;48.720;9.094;2023-09-19T00:56:23;203.80;;;194.75;;
3591;SDS011;1810;48.720;9.094;2023-09-19T00:58:51;239.65;;;229.32;;
3591;SDS011;1810;48.720;9.094;2023-09-19T01:01:20;266.08;;;254.43;;
3591;SDS011;1810;48.720;9.094;2023-09-19T01:03:49;332.77;;;318.08;;
3591;SDS011;1810;48.720;9.094;2023-09-19T01:06:18;367.67;;;351.20;;
3591;SDS011;1810;48.720;9.094;2023-09-19T01:08:48;389.45;;;371.52;;
3591;SDS011;1810;48.720;9.094;2023-09-19T01:11:19;365.90;;;349.70;;
3591;SDS011;1810;48.720;9.094;2023-09-19T01:13:55;369.42;;;352.73;;
3591;SDS011;1810;48.720;9.094;2023-09-19T01:16:28;381.52;;;363.42;;
3591;SDS011;1810;48.720;9.094;2023-09-19T01:19:06;319.90;;;305.70;;
3591;SDS011;1810;48.720;9.094;2023-09-19T01:21:44;359.02;;;342.95;;
3591;SDS011;1810;48.720;9.094;2023-09-19T01:24:34;280.50;;;267.92;;
3591;SDS011;1810;48.720;9.094;2023-09-19T01:27:25;342.63;;;326.88;;
3591;SDS011;1810;48.720;9.094;2023-09-19T01:30:07;284.13;;;271.38;;
3591;SDS011;1810;48.720;9.094;2023-09-19T01:32:37;298.00;;;284.63;;
3591;SDS011;1810;48.720;9.094;2023-09-19T01:35:07;284.88;;;272.20;;
3591;SDS011;1810;48.720;9.094;2023-09-19T01:37:39;283.00;;;270.30;;
3591;SDS011;1810;48.720;9.094;2023-09-19T01:40:12;249.15;;;237.63;;
3591;SDS011;1810;48.720;9.094;2023-09-19T01:42:44;279.23;;;266.80;;
3591;SDS011;1810;48.720;9.094;2023-09-19T01:45:19;278.35;;;265.80;;
3591;SDS011;1810;48.720;9.094;2023-09-19T01:47:54;249.45;;;238.35;;
3591;SDS011;1810;48.720;9.094;2023-09-19T01:50:28;302.90;;;289.35;;
3591;SDS011;1810;48.720;9.094;2023-09-19T01:52:59;251.88;;;240.68;;
3591;SDS011;1810;48.720;9.094;2023-09-19T01:55:30;341.38;;;326.13;;
3591;SDS011;1810;48.720;9.094;2023-09-19T01:58:04;352.63;;;336.77;;
3591;SDS011;1810;48.720;9.094;2023-09-19T02:00:36;300.75;;;287.48;;
3591;SDS011;1810;48.720;9.094;2023-09-19T02:03:06;336.75;;;321.30;;
3591;SDS011;1810;48.720;9.094;2023-09-19T02:05:35;270.27;;;258.10;;
3591;SDS011;1810;48.720;9.094;2023-09-19T02:08:05;246.07;;;235.00;;
3591;SDS011;1810;48.720;9.094;2023-09-19T02:10:33;206.48;;;197.40;;
3591;SDS011;1810;48.720;9.094;2023-09-19T02:13:02;267.17;;;255.32;;
3591;SDS011;1810;48.720;9.094;2023-09-19T02:15:32;264.38;;;252.65;;
3591;SDS011;1810;48.720;9.094;2023-09-19T02:18:02;211.55;;;201.82;;
3591;SDS011;1810;48.720;9.094;2023-09-19T02:20:31;191.38;;;182.77;;
3591;SDS011;1810;48.720;9.094;2023-09-19T02:23:00;201.73;;;192.30;;
3591;SDS011;1810;48.720;9.094;2023-09-19T02:25:29;241.00;;;230.35;;
3591;SDS011;1810;48.720;9.094;2023-09-19T02:27:58;176.93;;;168.85;;
3591;SDS011;1810;48.720;9.094;2023-09-19T02:30:29;209.73;;;200.50;;
3591;SDS011;1810;48.720;9.094;2023-09-19T02:32:57;208.10;;;198.73;;
3591;SDS011;1810;48.720;9.094;2023-09-19T02:35:29;204.32;;;195.23;;
3591;SDS011;1810;48.720;9.094;2023-09-19T02:38:01;303.92;;;290.20;;
3591;SDS011;1810;48.720;9.094;2023-09-19T02:40:32;268.48;;;256.70;;
3591;SDS011;1810;48.720;9.094;2023-09-19T02:43:02;180.65;;;172.63;;
3591;SDS011;1810;48.720;9.094;2023-09-19T02:45:31;121.93;;;116.15;;
3591;SDS011;1810;48.720;9.094;2023-09-19T02:48:00;129.70;;;123.47;;
3591;SDS011;1810;48.720;9.094;2023-09-19T02:50:32;115.55;;;110.15;;
3591;SDS011;1810;48.720;9.094;2023-09-19T02:53:01;112.22;;;106.85;;
3591;SDS011;1810;48.720;9.094;2023-09-19T02:55:31;96.57;;;91.80;;
3591;SDS011;1810;48.720;9.094;2023-09-19T02:58:00;78.03;;;73.93;;
3591;SDS011;1810;48.720;9.094;2023-09-19T03:00:31;83.00;;;78.78;;
3591;SDS011;1810;48.720;9.094;2023-09-19T03:03:00;160.77;;;153.40;;
3591;SDS011;1810;48.720;9.094;2023-09-19T03:05:31;116.10;;;110.43;;
3591;SDS011;1810;48.720;9.094;2023-09-19T03:08:00;162.13;;;154.90;;
3591;SDS011;1810;48.720;9.094;2023-09-19T03:10:29;137.52;;;131.25;;
3591;SDS011;1810;48.720;9.094;2023-09-19T03:12:58;192.05;;;183.52;;
3591;SDS011;1810;48.720;9.094;2023-09-19T03:15:27;235.55;;;224.95;;
3591;SDS011;1810;48.720;9.094;2023-09-19T03:17:56;305.60;;;292.23;;
3591;SDS011;1810;48.720;9.094;2023-09-19T03:20:26;374.15;;;356.95;;
3591;SDS011;1810;48.720;9.094;2023-09-19T03:22:55;444.58;;;423.27;;
3591;SDS011;1810;48.720;9.094;2023-09-19T03:25:24;381.65;;;364.33;;
3591;SDS011;1810;48.720;9.094;2023-09-19T03:27:55;403.83;;;384.75;;
3591;SDS011;1810;48.720;9.094;2023-09-19T03:30:25;410.30;;;391.10;;
3591;SDS011;1810;48.720;9.094;2023-09-19T03:32:53;357.52;;;341.15;;
3591;SDS011;1810;48.720;9.094;2023-09-19T03:35:22;396.73;;;378.35;;
3591;SDS011;1810;48.720;9.094;2023-09-19T03:37:51;429.02;;;408.70;;
3591;SDS011;1810;48.720;9.094;2023-09-19T03:40:21;555.83;;;527.15;;
3591;SDS011;1810;48.720;9.094;2023-09-19T03:42:51;520.15;;;493.83;;
3591;SDS011;1810;48.720;9.094;2023-09-19T03:45:21;501.90;;;476.45;;
3591;SDS011;1810;48.720;9.094;2023-09-19T03:47:49;445.33;;;424.13;;
3591;SDS011;1810;48.720;9.094;2023-09-19T03:50:18;547.28;;;519.10;;
3591;SDS011;1810;48.720;9.094;2023-09-19T03:52:46;461.05;;;438.65;;
3591;SDS011;1810;48.720;9.094;2023-09-19T03:55:15;422.50;;;402.58;;
3591;SDS011;1810;48.720;9.094;2023-09-19T03:57:48;421.50;;;401.40;;
3591;SDS011;1810;48.720;9.094;2023-09-19T04:00:19;392.25;;;374.27;;
3591;SDS011;1810;48.720;9.094;2023-09-19T04:02:51;445.50;;;423.98;;
3591;SDS011;1810;48.720;9.094;2023-09-19T04:05:22;437.48;;;416.52;;
3591;SDS011;1810;48.720;9.094;2023-09-19T04:07:51;436.00;;;415.35;;
3591;SDS011;1810;48.720;9.094;2023-09-19T04:10:20;424.48;;;404.48;;
3591;SDS011;1810;48.720;9.094;2023-09-19T04:12:52;400.55;;;381.67;;
3591;SDS011;1810;48.720;9.094;2023-09-19T04:15:22;393.13;;;375.05;;
3591;SDS011;1810;48.720;9.094;2023-09-19T04:17:51;231.52;;;221.30;;
3591;SDS011;1810;48.720;9.094;2023-09-19T04:20:19;190.00;;;181.48;;
3591;SDS011;1810;48.720;9.094;2023-09-19T04:22:49;205.65;;;196.50;;
3591;SDS011;1810;48.720;9.094;2023-09-19T04:25:18;245.27;;;234.38;;
3591;SDS011;1810;48.720;9.094;2023-09-19T04:27:47;218.00;;;208.50;;
3591;SDS011;1810;48.720;9.094;2023-09-19T04:30:17;196.88;;;188.07;;
3591;SDS011;1810;48.720;9.094;2023-09-19T04:32:47;133.88;;;127.55;;
3591;SDS011;1810;48.720;9.094;2023-09-19T04:35:18;156.80;;;149.38;;
3591;SDS011;1810;48.720;9.094;2023-09-19T04:37:47;173.15;;;165.48;;
3591;SDS011;1810;48.720;9.094;2023-09-19T04:40:16;127.40;;;121.53;;
3591;SDS011;1810;48.720;9.094;2023-09-19T04:42:45;169.60;;;161.95;;
3591;SDS011;1810;48.720;9.094;2023-09-19T04:45:24;149.27;;;142.48;;
3591;SDS011;1810;48.720;9.094;2023-09-19T04:47:54;195.05;;;185.90;;
3591;SDS011;1810;48.720;9.094;2023-09-19T04:50:23;227.98;;;217.82;;
3591;SDS011;1810;48.720;9.094;2023-09-19T04:52:53;339.40;;;324.15;;
3591;SDS011;1810;48.720;9.094;2023-09-19T04:55:21;346.92;;;331.40;;
3591;SDS011;1810;48.720;9.094;2023-09-19T04:57:50;259.30;;;247.68;;
3591;SDS011;1810;48.720;9.094;2023-09-19T05:00:20;293.60;;;280.60;;
3591;SDS011;1810;48.720;9.094;2023-09-19T05:02:54;375.95;;;358.98;;
3591;SDS011;1810;48.720;9.094;2023-09-19T05:05:24;384.13;;;366.52;;
3591;SDS011;1810;48.720;9.094;2023-09-19T05:07:52;367.33;;;350.75;;
3591;SDS011;1810;48.720;9.094;2023-09-19T05:10:22;345.20;;;329.77;;
3591;SDS011;1810;48.720;9.094;2023-09-19T05:12:52;302.98;;;289.67;;
3591;SDS011;1810;48.720;9.094;2023-09-19T05:15:21;213.65;;;204.05;;
3591;SDS011;1810;48.720;9.094;2023-09-19T05:17:50;113.80;;;108.25;;
3591;SDS011;1810;48.720;9.094;2023-09-19T05:20:26;147.68;;;140.63;;
3591;SDS011;1810;48.720;9.094;2023-09-19T05:22:59;167.35;;;158.65;;
3591;SDS011;1810;48.720;9.094;2023-09-19T05:25:34;127.25;;;121.07;;
3591;SDS011;1810;48.720;9.094;2023-09-19T05:28:05;102.45;;;97.32;;
3591;SDS011;1810;48.720;9.094;2023-09-19T05:30:34;93.07;;;88.38;;
3591;SDS011;1810;48.720;9.094;2023-09-19T05:33:05;94.90;;;90.32;;
3591;SDS011;1810;48.720;9.094;2023-09-19T05:35:35;103.95;;;98.45;;
3591;SDS011;1810;48.720;9.094;2023-09-19T05:38:06;96.35;;;91.47;;
3591;SDS011;1810;48.720;9.094;2023-09-19T05:40:36;122.78;;;116.82;;
3591;SDS011;1810;48.720;9.094;2023-09-19T05:43:05;103.78;;;97.30;;
3591;SDS011;1810;48.720;9.094;2023-09-19T05:45:34;117.80;;;111.88;;
3591;SDS011;1810;48.720;9.094;2023-09-19T05:48:07;152.00;;;144.48;;
3591;SDS011;1810;48.720;9.094;2023-09-19T05:50:39;300.85;;;287.67;;
3591;SDS011;1810;48.720;9.094;2023-09-19T05:53:07;359.60;;;343.40;;
3591;SDS011;1810;48.720;9.094;2023-09-19T05:55:38;409.88;;;387.80;;
3591;SDS011;1810;48.720;9.094;2023-09-19T05:58:07;448.63;;;426.80;;
3591;SDS011;1810;48.720;9.094;2023-09-19T06:00:36;396.55;;;377.85;;
3591;SDS011;1810;48.720;9.094;2023-09-19T06:03:05;361.23;;;344.40;;
3591;SDS011;1810;48.720;9.094;2023-09-19T06:05:34;269.65;;;257.10;;
3591;SDS011;1810;48.720;9.094;2023-09-19T06:08:08;231.45;;;221.05;;
3591;SDS011;1810;48.720;9.094;2023-09-19T06:10:37;173.25;;;164.95;;
3591;SDS011;1810;48.720;9.094;2023-09-19T06:13:06;162.50;;;154.98;;
3591;SDS011;1810;48.720;9.094;2023-09-19T06:15:36;206.90;;;196.82;;
3591;SDS011;1810;48.720;9.094;2023-09-19T06:18:09;116.75;;;110.68;;
3591;SDS011;1810;48.720;9.094;2023-09-19T06:20:41;85.78;;;81.32;;
3591;SDS011;1810;48.720;9.094;2023-09-19T06:23:12;95.72;;;90.85;;
3591;SDS011;1810;48.720;9.094;2023-09-19T06:25:41;89.28;;;84.88;;
3591;SDS011;1810;48.720;9.094;2023-09-19T06:28:10;106.50;;;101.10;;
3591;SDS011;1810;48.720;9.094;2023-09-19T06:30:39;60.47;;;57.33;;
3591;SDS011;1810;48.720;9.094;2023-09-19T06:33:09;77.28;;;73.47;;
3591;SDS011;1810;48.720;9.094;2023-09-19T06:35:42;74.20;;;70.28;;
3591;SDS011;1810;48.720;9.094;2023-09-19T06:38:12;90.88;;;86.47;;
3591;SDS011;1810;48.720;9.094;2023-09-19T06:40:41;91.82;;;87.25;;
3591;SDS011;1810;48.720;9.094;2023-09-19T06:43:10;88.85;;;84.55;;
3591;SDS011;1810;48.720;9.094;2023-09-19T06:45:40;130.75;;;121.88;;
3591;SDS011;1810;48.720;9.094;2023-09-19T06:48:09;88.53;;;84.10;;
3591;SDS011;1810;48.720;9.094;2023-09-19T06:50:38;115.85;;;110.00;;
3591;SDS011;1810;48.720;9.094;2023-09-19T06:53:07;162.85;;;155.43;;
3591;SDS011;1810;48.720;9.094;2023-09-19T06:55:37;317.02;;;303.15;;
3591;SDS011;1810;48.720;9.094;2023-09-19T06:58:06;442.30;;;418.08;;
3591;SDS011;1810;48.720;9.094;2023-09-19T07:00:37;373.27;;;356.40;;
3591;SDS011;1810;48.720;9.094;2023-09-19T07:03:06;338.08;;;322.98;;
3591;SDS011;1810;48.720;9.094;2023-09-19T07:05:38;398.67;;;380.20;;
3591;SDS011;1810;48.720;9.094;2023-09-19T07:08:09;517.00;;;491.02;;
3591;SDS011;1810;48.720;9.094;2023-09-19T07:10:41;548.83;;;520.85;;
3591;SDS011;1810;48.720;9.094;2023-09-19T07:13:15;558.25;;;529.78;;
3591;SDS011;1810;48.720;9.094;2023-09-19T07:15:44;557.40;;;528.70;;
3591;SDS011;1810;48.720;9.094;2023-09-19T07:18:17;592.30;;;560.67;;
3591;SDS011;1810;48.720;9.094;2023-09-19T07:20:46;600.13;;;567.83;;
3591;SDS011;1810;48.720;9.094;2023-09-19T07:23:16;759.53;;;709.40;;
3591;SDS011;1810;48.720;9.094;2023-09-19T07:25:47;679.75;;;639.72;;
3591;SDS011;1810;48.720;9.094;2023-09-19T07:28:16;690.80;;;650.58;;
3591;SDS011;1810;48.720;9.094;2023-09-19T07:30:44;670.03;;;631.03;;
3591;SDS011;1810;48.720;9.094;2023-09-19T07:33:13;704.85;;;662.80;;
3591;SDS011;1810;48.720;9.094;2023-09-19T07:35:44;696.08;;;654.65;;
3591;SDS011;1810;48.720;9.094;2023-09-19T07:38:14;680.03;;;640.08;;
3591;SDS011;1810;48.720;9.094;2023-09-19T07:40:44;729.83;;;684.08;;
3591;SDS011;1810;48.720;9.094;2023-09-19T07:43:14;731.40;;;686.33;;
3591;SDS011;1810;48.720;9.094;2023-09-19T07:45:44;750.33;;;703.03;;
3591;SDS011;1810;48.720;9.094;2023-09-19T07:48:13;741.67;;;695.17;;
3591;SDS011;1810;48.720;9.094;2023-09-19T07:50:42;717.42;;;673.20;;
3591;SDS011;1810;48.720;9.094;2023-09-19T07:53:11;755.50;;;707.55;;
3591;SDS011;1810;48.720;9.094;2023-09-19T07:55:41;735.22;;;689.67;;
3591;SDS011;1810;48.720;9.094;2023-09-19T07:58:16;743.28;;;697.08;;
3591;SDS011;1810;48.720;9.094;2023-09-19T08:00:44;796.55;;;743.10;;
3591;SDS011;1810;48.720;9.094;2023-09-19T08:03:13;730.17;;;684.88;;
3591;SDS011;1810;48.720;9.094;2023-09-19T08:05:43;724.05;;;679.35;;
3591;SDS011;1810;48.720;9.094;2023-09-19T08:08:12;713.20;;;669.17;;
3591;SDS011;1810;48.720;9.094;2023-09-19T08:10:42;765.42;;;716.83;;
3591;SDS011;1810;48.720;9.094;2023-09-19T08:13:12;735.25;;;689.25;;
3591;SDS011;1810;48.720;9.094;2023-09-19T08:15:44;708.88;;;666.03;;
3591;SDS011;1810;48.720;9.094;2023-09-19T08:18:14;776.00;;;725.40;;
3591;SDS011;1810;48.720;9.094;2023-09-19T08:20:43;728.13;;;683.30;;
3591;SDS011;1810;48.720;9.094;2023-09-19T08:23:17;721.95;;;677.67;;
3591;SDS011;1810;48.720;9.094;2023-09-19T08:25:47;740.95;;;694.33;;
3591;SDS011;1810;48.720;9.094;2023-09-19T08:28:17;757.75;;;710.10;;
3591;SDS011;1810;48.720;9.094;2023-09-19T08:30:50;758.83;;;709.90;;
3591;SDS011;1810;48.720;9.094;2023-09-19T08:33:19;725.60;;;680.80;;
3591;SDS011;1810;48.720;9.094;2023-09-19T08:35:48;713.00;;;668.83;;
3591;SDS011;1810;48.720;9.094;2023-09-19T08:38:16;760.92;;;712.65;;
3591;SDS011;1810;48.720;9.094;2023-09-19T08:40:45;794.67;;;742.78;;
3591;SDS011;1810;48.720;9.094;2023-09-19T08:43:13;839.65;;;783.38;;
3591;SDS011;1810;48.720;9.094;2023-09-19T08:45:43;803.95;;;751.03;;
3591;SDS011;1810;48.720;9.094;2023-09-19T08:48:17;822.67;;;768.28;;
3591;SDS011;1810;48.720;9.094;2023-09-19T08:50:52;843.83;;;787.13;;
3591;SDS011;1810;48.720;9.094;2023-09-19T08:53:27;838.72;;;782.28;;
3591;SDS011;1810;48.720;9.094;2023-09-19T08:56:04;858.80;;;800.78;;
3591;SDS011;1810;48.720;9.094;2023-09-19T08:58:39;868.53;;;809.70;;
3591;SDS011;1810;48.720;9.094;2023-09-19T09:01:15;961.63;;;889.78;;
3591;SDS011;1810;48.720;9.094;2023-09-19T09:03:49;861.10;;;802.75;;
3591;SDS011;1810;48.720;9.094;2023-09-19T09:06:18;880.65;;;820.35;;
3591;SDS011;1810;48.720;9.094;2023-09-19T09:08:47;869.72;;;810.53;;
3591;SDS011;1810;48.720;9.094;2023-09-19T09:11:17;844.90;;;787.58;;
3591;SDS011;1810;48.720;9.094;2023-09-19T09:13:46;866.72;;;807.28;;
3591;SDS011;1810;48.720;9.094;2023-09-19T09:16:16;845.35;;;788.35;;
3591;SDS011;1810;48.720;9.094;2023-09-19T09:18:46;863.92;;;805.22;;
3591;SDS011;1810;48.720;9.094;2023-09-19T09:21:20;811.42;;;757.10;;
3591;SDS011;1810;48.720;9.094;2023-09-19T09:23:49;885.85;;;823.53;;
3591;SDS011;1810;48.720;9.094;2023-09-19T09:26:24;871.90;;;811.83;;
3591;SDS011;1810;48.720;9.094;2023-09-19T09:29:10;858.22;;;799.92;;
3591;SDS011;1810;48.720;9.094;2023-09-19T09:31:42;840.65;;;783.95;;
3591;SDS011;1810;48.720;9.094;2023-09-19T09:34:11;865.42;;;805.88;;
3591;SDS011;1810;48.720;9.094;2023-09-19T09:36:41;849.05;;;791.90;;
3591;SDS011;1810;48.720;9.094;2023-09-19T09:39:10;867.75;;;808.03;;
3591;SDS011;1810;48.720;9.094;2023-09-19T09:41:45;868.95;;;809.42;;
3591;SDS011;1810;48.720;9.094;2023-09-19T09:44:14;843.60;;;787.45;;
3591;SDS011;1810;48.720;9.094;2023-09-19T09:46:45;906.45;;;841.47;;
3591;SDS011;1810;48.720;9.094;2023-09-19T09:49:26;845.75;;;788.53;;
3591;SDS011;1810;48.720;9.094;2023-09-19T09:52:01;852.42;;;794.55;;
3591;SDS011;1810;48.720;9.094;2023-09-19T09:54:37;846.63;;;789.60;;
3591;SDS011;1810;48.720;9.094;2023-09-19T09:57:08;863.28;;;804.08;;
3591;SDS011;1810;48.720;9.094;2023-09-19T09:59:47;868.20;;;808.75;;
3591;SDS011;1810;48.720;9.094;2023-09-19T10:02:19;873.70;;;814.40;;
3591;SDS011;1810;48.720;9.094;2023-09-19T10:04:52;869.80;;;810.95;;
3591;SDS011;1810;48.720;9.094;2023-09-19T10:07:36;847.30;;;790.28;;
3591;SDS011;1810;48.720;9.094;2023-09-19T10:12:48;932.53;;;864.63;;
3591;SDS011;1810;48.720;9.094;2023-09-19T10:15:17;915.55;;;850.25;;
3591;SDS011;1810;48.720;9.094;2023-09-19T10:17:48;1001.70;;;923.90;;
3591;SDS011;1810;48.720;9.094;2023-09-19T10:20:20;942.35;;;874.17;;
3591;SDS011;1810;48.720;9.094;2023-09-19T10:23:00;940.67;;;872.15;;
3591;SDS011;1810;48.720;9.094;2023-09-19T10:25:36;960.80;;;888.70;;
3591;SDS011;1810;48.720;9.094;2023-09-19T10:28:06;931.35;;;864.70;;
3591;SDS011;1810;48.720;9.094;2023-09-19T10:30:40;941.30;;;872.72;;
3591;SDS011;1810;48.720;9.094;2023-09-19T10:33:13;930.20;;;862.75;;
3591;SDS011;1810;48.720;9.094;2023-09-19T10:35:44;943.22;;;874.58;;
3591;SDS011;1810;48.720;9.094;2023-09-19T10:38:14;1006.97;;;926.83;;
3591;SDS011;1810;48.720;9.094;2023-09-19T10:40:47;967.67;;;896.00;;
3591;SDS011;1810;48.720;9.094;2023-09-19T10:43:18;924.38;;;857.33;;
3591;SDS011;1810;48.720;9.094;2023-09-19T10:45:49;1002.60;;;921.33;;
3591;SDS011;1810;48.720;9.094;2023-09-19T10:48:21;946.17;;;876.85;;
3591;SDS011;1810;48.720;9.094;2023-09-19T10:50:55;939.85;;;871.05;;
3591;SDS011;1810;48.720;9.094;2023-09-19T10:53:29;945.40;;;876.50;;
3591;SDS011;1810;48.720;9.094;2023-09-19T10:56:00;941.72;;;873.28;;
3591;SDS011;1810;48.720;9.094;2023-09-19T10:58:36;973.28;;;898.17;;
3591;SDS011;1810;48.720;9.094;2023-09-19T11:01:07;933.50;;;866.15;;
3591;SDS011;1810;48.720;9.094;2023-09-19T11:03:40;938.97;;;870.67;;
3591;SDS011;1810;48.720;9.094;2023-09-19T11:06:14;941.42;;;873.00;;
3591;SDS011;1810;48.720;9.094;2023-09-19T11:08:56;954.65;;;885.25;;
3591;SDS011;1810;48.720;9.094;2023-09-19T11:11:48;1011.92;;;932.72;;
3591;SDS011;1810;48.720;9.094;2023-09-19T11:14:29;944.33;;;876.05;;
3591;SDS011;1810;48.720;9.094;2023-09-19T11:23:19;948.63;;;878.72;;
3591;SDS011;1810;48.720;9.094;2023-09-19T11:25:53;988.80;;;913.00;;
3591;SDS011;1810;48.720;9.094;2023-09-19T11:28:32;952.97;;;882.55;;
3591;SDS011;1810;48.720;9.094;2023-09-19T11:40:52;931.67;;;864.58;;
3591;SDS011;1810;48.720;9.094;2023-09-19T11:47:45;932.35;;;864.75;;
3591;SDS011;1810;48.720;9.094;2023-09-19T11:50:17;940.22;;;871.20;;
3591;SDS011;1810;48.720;9.094;2023-09-19T11:52:47;941.45;;;872.25;;
3591;SDS011;1810;48.720;9.094;2023-09-19T11:55:17;948.08;;;879.70;;
3591;SDS011;1810;48.720;9.094;2023-09-19T11:57:49;937.92;;;869.67;;
3591;SDS011;1810;48.720;9.094;2023-09-19T12:00:18;964.00;;;893.28;;
3591;SDS011;1810;48.720;9.094;2023-09-19T12:02:47;939.83;;;871.33;;
3591;SDS011;1810;48.720;9.094;2023-09-19T12:05:27;1023.83;;;941.60;;
3591;SDS011;1810;48.720;9.094;2023-09-19T12:07:57;940.33;;;871.88;;
3591;SDS011;1810;48.720;9.094;2023-09-19T12:10:25;949.42;;;880.22;;
3591;SDS011;1810;48.720;9.094;2023-09-19T12:12:56;960.35;;;888.40;;
3591;SDS011;1810;48.720;9.094;2023-09-19T12:15:26;954.42;;;885.10;;
3591;SDS011;1810;48.720;9.094;2023-09-19T12:17:54;938.63;;;870.17;;
3591;SDS011;1810;48.720;9.094;2023-09-19T12:20:23;972.13;;;898.80;;
3591;SDS011;1810;48.720;9.094;2023-09-19T12:22:52;1006.53;;;923.72;;
3591;SDS011;1810;48.720;9.094;2023-09-19T12:25:21;978.92;;;904.85;;
3591;SDS011;1810;48.720;9.094;2023-09-19T12:27:51;955.70;;;885.63;;
3591;SDS011;1810;48.720;9.094;2023-09-19T12:30:27;949.53;;;880.00;;
3591;SDS011;1810;48.720;9.094;2023-09-19T12:32:59;948.83;;;879.10;;
3591;SDS011;1810;48.720;9.094;2023-09-19T12:35:30;944.50;;;876.08;;
3591;SDS011;1810;48.720;9.094;2023-09-19T12:38:01;945.38;;;875.95;;
3591;SDS011;1810;48.720;9.094;2023-09-19T12:40:32;1026.82;;;941.58;;
3591;SDS011;1810;48.720;9.094;2023-09-19T12:43:03;964.80;;;892.35;;
3591;SDS011;1810;48.720;9.094;2023-09-19T12:45:35;936.38;;;868.63;;
3591;SDS011;1810;48.720;9.094;2023-09-19T12:48:17;962.33;;;889.65;;
3591;SDS011;1810;48.720;9.094;2023-09-19T12:51:04;969.53;;;895.90;;
3591;SDS011;1810;48.720;9.094;2023-09-19T12:53:35;944.55;;;874.95;;
3591;SDS011;1810;48.720;9.094;2023-09-19T12:56:08;938.27;;;870.57;;
3591;SDS011;1810;48.720;9.094;2023-09-19T12:58:48;946.03;;;876.95;;
3591;SDS011;1810;48.720;9.094;2023-09-19T13:01:19;960.05;;;889.20;;
3591;SDS011;1810;48.720;9.094;2023-09-19T13:06:41;957.38;;;886.45;;
3591;SDS011;1810;48.720;9.094;2023-09-19T13:09:11;948.85;;;878.60;;
3591;SDS011;1810;48.720;9.094;2023-09-19T13:11:41;959.90;;;889.10;;
3591;SDS011;1810;48.720;9.094;2023-09-19T13:14:14;953.00;;;883.13;;
3591;SDS011;1810;48.720;9.094;2023-09-19T13:16:57;968.03;;;895.55;;
3591;SDS011;1810;48.720;9.094;2023-09-19T13:19:37;961.10;;;889.17;;
3591;SDS011;1810;48.720;9.094;2023-09-19T13:25:06;999.92;;;923.58;;
3591;SDS011;1810;48.720;9.094;2023-09-19T13:27:40;966.08;;;893.70;;
3591;SDS011;1810;48.720;9.094;2023-09-19T13:30:11;961.88;;;890.53;;
3591;SDS011;1810;48.720;9.094;2023-09-19T13:32:41;929.83;;;863.30;;
3591;SDS011;1810;48.720;9.094;2023-09-19T13:35:10;950.05;;;880.03;;
3591;SDS011;1810;48.720;9.094;2023-09-19T13:37:40;962.28;;;889.90;;
3591;SDS011;1810;48.720;9.094;2023-09-19T13:40:13;1021.22;;;939.13;;
3591;SDS011;1810;48.720;9.094;2023-09-19T13:42:43;933.67;;;865.85;;
3591;SDS011;1810;48.720;9.094;2023-09-19T13:45:11;972.00;;;899.22;;
3591;SDS011;1810;48.720;9.094;2023-09-19T13:47:45;935.72;;;868.28;;
3591;SDS011;1810;48.720;9.094;2023-09-19T13:50:13;955.40;;;885.70;;
3591;SDS011;1810;48.720;9.094;2023-09-19T13:52:43;901.67;;;838.22;;
3591;SDS011;1810;48.720;9.094;2023-09-19T13:55:14;912.38;;;847.47;;
3591;SDS011;1810;48.720;9.094;2023-09-19T13:57:46;920.42;;;854.90;;
3591;SDS011;1810;48.720;9.094;2023-09-19T14:00:19;921.92;;;855.90;;
3591;SDS011;1810;48.720;9.094;2023-09-19T14:02:51;930.80;;;863.35;;
3591;SDS011;1810;48.720;9.094;2023-09-19T14:05:21;933.85;;;866.65;;
3591;SDS011;1810;48.720;9.094;2023-09-19T14:07:54;960.67;;;889.85;;
3591;SDS011;1810;48.720;9.094;2023-09-19T14:10:25;991.55;;;913.55;;
3591;SDS011;1810;48.720;9.094;2023-09-19T14:12:56;917.17;;;851.30;;
3591;SDS011;1810;48.720;9.094;2023-09-19T14:15:26;967.95;;;896.10;;
3591;SDS011;1810;48.720;9.094;2023-09-19T14:17:58;1001.03;;;921.80;;
3591;SDS011;1810;48.720;9.094;2023-09-19T14:20:27;972.10;;;899.13;;
3591;SDS011;1810;48.720;9.094;2023-09-19T14:22:57;932.30;;;864.63;;
3591;SDS011;1810;48.720;9.094;2023-09-19T14:25:26;918.42;;;852.65;;
3591;SDS011;1810;48.720;9.094;2023-09-19T14:27:56;944.40;;;875.92;;
3591;SDS011;1810;48.720;9.094;2023-09-19T14:30:25;958.22;;;886.28;;
3591;SDS011;1810;48.720;9.094;2023-09-19T14:32:55;970.25;;;897.20;;
3591;SDS011;1810;48.720;9.094;2023-09-19T14:35:25;950.63;;;881.65;;
3591;SDS011;1810;48.720;9.094;2023-09-19T14:37:53;965.53;;;894.58;;
3591;SDS011;1810;48.720;9.094;2023-09-19T14:40:22;921.35;;;855.28;;
3591;SDS011;1810;48.720;9.094;2023-09-19T14:42:51;913.90;;;848.80;;
3591;SDS011;1810;48.720;9.094;2023-09-19T14:45:20;926.55;;;859.13;;
3591;SDS011;1810;48.720;9.094;2023-09-19T14:47:50;944.75;;;876.00;;
3591;SDS011;1810;48.720;9.094;2023-09-19T14:50:22;998.85;;;916.15;;
3591;SDS011;1810;48.720;9.094;2023-09-19T14:52:51;945.42;;;876.25;;
3591;SDS011;1810;48.720;9.094;2023-09-19T14:55:20;932.45;;;865.33;;
3591;SDS011;1810;48.720;9.094;2023-09-19T14:57:49;927.97;;;860.47;;
3591;SDS011;1810;48.720;9.094;2023-09-19T15:00:19;903.05;;;838.80;;
3591;SDS011;1810;48.720;9.094;2023-09-19T15:02:49;919.22;;;853.83;;
3591;SDS011;1810;48.720;9.094;2023-09-19T15:05:19;926.17;;;859.45;;
3591;SDS011;1810;48.720;9.094;2023-09-19T15:07:49;930.05;;;863.28;;
3591;SDS011;1810;48.720;9.094;2023-09-19T15:10:18;990.45;;;912.70;;
3591;SDS011;1810;48.720;9.094;2023-09-19T15:12:46;996.47;;;918.58;;
3591;SDS011;1810;48.720;9.094;2023-09-19T15:15:15;915.47;;;850.63;;